Time;durP1;ratioP1;P1;durP2;ratioP2;P2;SDS_P1;SDS_P2;PMS_P1;PMS_P2;Temp;Humidity;BMP_temperature;BMP_pressure;BME280_temperature;BME280_humidity;BME280_pressure;Samples;Min_cycle;Max_cycle;Signal;HPM_P1;HPM_P2
2022/06/09 00:01:05;;;;;;;;;5.33;1.67;;;;;33.01;25.10;100861.66;5095733;27;46822;-75
2022/06/09 00:03:36;;;;;;;;;0.67;0.67;;;;;33.03;24.94;100870.66;5096042;27;45377;-75
2022/06/09 00:06:03;;;;;;;;;2.67;0.67;;;;;32.99;25.08;100867.22;5095760;27;45745;-75
2022/06/09 00:08:30;;;;;;;;;3.00;1.67;;;;;32.87;25.04;100870.00;5095986;27;45642;-74
2022/06/09 00:11:00;;;;;;;;;1.67;1.67;;;;;32.91;24.94;100872.44;5095576;27;45519;-74
2022/06/09 00:13:26;;;;;;;;;1.67;1.67;;;;;32.99;25.06;100893.84;5095884;27;45427;-74
2022/06/09 00:15:51;;;;;;;;;2.67;1.67;;;;;32.84;24.96;100887.59;5095559;27;45642;-74
2022/06/09 00:18:17;;;;;;;;;3.67;1.67;;;;;32.67;24.65;100894.28;5095765;27;45484;-74
2022/06/09 00:20:42;;;;;;;;;2.00;2.00;;;;;32.62;25.18;100877.28;5095439;27;45513;-74
2022/06/09 00:23:08;;;;;;;;;2.00;2.00;;;;;32.54;24.94;100905.28;5095553;27;45492;-75
2022/06/09 00:25:35;;;;;;;;;2.67;1.67;;;;;32.37;24.76;100865.28;5095868;27;45499;-75
2022/06/09 00:28:01;;;;;;;;;2.67;2.00;;;;;32.69;25.03;100896.94;5095704;27;45205;-74
2022/06/09 00:30:27;;;;;;;;;0.67;0.67;;;;;32.65;25.17;100891.66;5095479;27;45227;-74
2022/06/09 00:32:52;;;;;;;;;4.00;2.00;;;;;32.80;24.69;100897.09;5095411;27;45211;-74
2022/06/09 00:35:17;;;;;;;;;5.00;2.00;;;;;32.76;24.67;100893.66;5099241;27;45376;-74
2022/06/09 00:37:43;;;;;;;;;2.00;2.00;;;;;32.73;25.06;100906.72;5099178;27;45547;-74
2022/06/09 00:40:12;;;;;;;;;2.00;1.67;;;;;32.90;24.99;100919.25;5099099;27;46453;-74
2022/06/09 00:42:37;;;;;;;;;3.00;2.00;;;;;33.23;24.31;100910.44;5099199;27;45456;-74
2022/06/09 00:45:23;;;;;;;;;1.00;1.00;;;;;32.99;24.67;100926.81;5099011;27;45448;-75
2022/06/09 00:47:50;;;;;;;;;3.00;1.00;;;;;32.71;24.35;100917.84;5098601;27;45556;-74
2022/06/09 00:50:19;;;;;;;;;2.00;2.00;;;;;32.72;24.37;100921.47;5098716;27;46704;-75
2022/06/09 00:52:52;;;;;;;;;2.67;1.33;;;;;32.65;24.94;100901.78;5097510;27;45626;-74
2022/06/09 00:55:21;;;;;;;;;2.67;2.00;;;;;32.54;25.23;100909.91;5099292;27;45223;-74
2022/06/09 00:57:55;;;;;;;;;4.33;1.67;;;;;32.43;24.88;100914.31;5098648;27;45595;-75
2022/06/09 01:00:25;;;;;;;;;2.00;1.00;;;;;32.30;25.17;100907.91;5097486;27;47050;-75
2022/06/09 01:02:53;;;;;;;;;1.67;0.00;;;;;32.11;25.46;100906.41;5098256;27;45469;-75
2022/06/09 01:05:22;;;;;;;;;3.67;2.67;;;;;32.27;25.14;100887.03;5098897;27;45587;-75
2022/06/09 01:07:52;;;;;;;;;1.33;1.33;;;;;31.87;25.29;100889.78;5098747;27;45513;-75
2022/06/09 01:10:17;;;;;;;;;1.67;1.67;;;;;31.97;25.33;100912.88;5097160;27;48590;-75
2022/06/09 01:12:45;;;;;;;;;3.33;1.67;;;;;32.10;25.06;100932.09;5098406;27;45413;-75
2022/06/09 01:15:15;;;;;;;;;1.67;1.67;;;;;31.97;25.10;100920.22;5098521;27;45409;-74
2022/06/09 01:17:47;;;;;;;;;2.33;2.33;;;;;32.01;25.08;100924.53;5098004;27;45620;-75
2022/06/09 01:20:31;;;;;;;;;2.00;2.00;;;;;32.06;25.20;100916.81;5098385;27;45869;-75
2022/06/09 01:23:24;;;;;;;;;4.00;2.33;;;;;31.90;25.24;100927.09;5098108;27;45394;-74
2022/06/09 01:26:05;;;;;;;;;1.00;1.00;;;;;31.95;25.29;100933.16;5098504;27;45341;-74
2022/06/09 01:29:01;;;;;;;;;2.33;2.33;;;;;31.91;25.28;100929.75;5098586;27;45409;-75
2022/06/09 01:31:48;;;;;;;;;2.00;2.00;;;;;31.95;25.32;100931.28;5098012;27;45963;-75
2022/06/09 01:34:26;;;;;;;;;4.00;2.00;;;;;31.92;25.20;100947.09;5098087;27;45282;-74
2022/06/09 01:36:54;;;;;;;;;3.33;1.00;;;;;31.94;25.48;100936.88;5098214;27;45350;-74
2022/06/09 01:39:48;;;;;;;;;3.67;2.00;;;;;32.00;25.54;100939.22;5098547;27;45214;-74
2022/06/09 01:42:33;;;;;;;;;2.00;2.00;;;;;32.19;25.38;100948.97;5083089;27;48023;-74
2022/06/09 01:45:08;;;;;;;;;2.33;2.00;;;;;31.95;25.48;100923.03;5096468;27;45558;-74
2022/06/09 01:47:51;;;;;;;;;3.33;1.67;;;;;31.79;25.48;100933.34;5097864;27;45486;-75
2022/06/09 01:50:27;;;;;;;;;4.67;3.00;;;;;31.92;25.20;100949.84;5097987;27;45273;-74
2022/06/09 01:52:55;;;;;;;;;3.00;2.00;;;;;31.85;25.47;100945.75;5097633;27;45528;-74
2022/06/09 01:55:23;;;;;;;;;3.00;2.00;;;;;31.66;25.65;100936.03;5097778;27;45432;-75
2022/06/09 01:57:55;;;;;;;;;4.00;2.67;;;;;31.61;25.97;100941.78;5097889;27;45405;-75
2022/06/09 02:00:20;;;;;;;;;4.00;2.00;;;;;31.56;25.77;100945.78;5097620;27;45222;-74
2022/06/09 02:03:04;;;;;;;;;1.67;1.67;;;;;31.43;26.11;100941.13;5097519;27;45424;-74
2022/06/09 02:05:37;;;;;;;;;1.67;1.67;;;;;31.62;25.89;100961.91;5097958;27;45370;-74
2022/06/09 02:08:05;;;;;;;;;4.00;2.00;;;;;31.56;26.15;100957.66;5097788;27;45468;-75
2022/06/09 02:10:33;;;;;;;;;2.67;2.00;;;;;31.54;26.13;100961.50;5097830;27;45320;-74
2022/06/09 02:13:31;;;;;;;;;1.67;1.00;;;;;31.71;26.09;100972.22;5097183;27;45542;-75
2022/06/09 02:16:10;;;;;;;;;2.33;2.00;;;;;31.65;25.80;100969.91;5088628;27;45531;-74
2022/06/09 02:18:39;;;;;;;;;2.00;2.00;;;;;31.59;25.69;100968.47;5097441;27;45258;-74
2022/06/09 02:21:11;;;;;;;;;4.67;2.00;;;;;31.76;25.55;100971.94;5097144;27;45587;-74
2022/06/09 02:23:37;;;;;;;;;6.00;3.33;;;;;31.68;25.75;100968.84;5097290;27;45463;-75
2022/06/09 02:26:03;;;;;;;;;1.67;1.67;;;;;31.68;25.62;100961.47;5097390;27;45413;-74
2022/06/09 02:28:29;;;;;;;;;4.67;1.00;;;;;31.77;25.46;100971.84;5097699;27;45485;-75
2022/06/09 02:30:54;;;;;;;;;3.00;2.00;;;;;31.61;26.08;100966.47;5096970;27;45569;-75
2022/06/09 02:33:20;;;;;;;;;3.00;2.00;;;;;31.68;25.75;100963.34;5097372;27;46180;-75
2022/06/09 02:35:47;;;;;;;;;3.00;2.00;;;;;31.62;26.01;100951.78;5097098;27;45526;-74
2022/06/09 02:38:12;;;;;;;;;3.00;3.00;;;;;31.59;25.73;100968.47;5096069;27;45438;-75
2022/06/09 02:40:38;;;;;;;;;4.33;1.00;;;;;31.47;26.17;100956.38;5097494;27;45353;-74
2022/06/09 02:43:03;;;;;;;;;1.33;1.33;;;;;31.41;26.28;100959.53;5096781;27;46168;-74
2022/06/09 02:45:29;;;;;;;;;2.33;2.00;;;;;31.52;26.05;100960.69;5096848;27;45337;-75
2022/06/09 02:47:55;;;;;;;;;1.67;1.00;;;;;31.53;25.63;100977.03;5097052;27;45433;-75
2022/06/09 02:50:20;;;;;;;;;5.67;2.67;;;;;31.45;26.00;100957.50;5097108;27;45246;-75
2022/06/09 02:52:46;;;;;;;;;4.00;2.67;;;;;31.47;26.31;100978.31;5096911;27;45379;-75
2022/06/09 02:55:13;;;;;;;;;3.00;2.00;;;;;31.61;25.98;100976.59;5096997;27;45241;-75
2022/06/09 02:57:39;;;;;;;;;2.00;2.00;;;;;31.59;25.88;100979.44;5096518;27;45318;-75
2022/06/09 03:00:07;;;;;;;;;6.00;2.00;;;;;31.56;26.02;100974.13;5096578;27;45402;-75
2022/06/09 03:02:33;;;;;;;;;5.00;1.00;;;;;31.45;25.66;100968.47;5096723;27;45400;-75
2022/06/09 03:04:58;;;;;;;;;5.00;2.67;;;;;31.40;25.45;100954.16;5096604;27;45519;-75
2022/06/09 03:07:24;;;;;;;;;3.33;3.33;;;;;31.50;26.10;100968.16;5097218;27;45426;-75
2022/06/09 03:09:51;;;;;;;;;4.00;1.00;;;;;31.55;25.91;100980.56;5096674;27;45491;-75
2022/06/09 03:12:17;;;;;;;;;1.67;1.00;;;;;31.61;25.92;100965.63;5096311;27;45448;-75
2022/06/09 03:14:42;;;;;;;;;5.67;3.00;;;;;31.52;26.09;100982.63;5096303;27;45366;-75
2022/06/09 03:17:08;;;;;;;;;3.00;3.00;;;;;31.49;25.53;100970.03;5096636;27;45492;-75
2022/06/09 03:19:34;;;;;;;;;3.00;2.00;;;;;31.38;26.14;100976.19;5095083;27;45366;-75
2022/06/09 03:22:00;;;;;;;;;4.00;3.00;;;;;31.37;26.32;100968.09;5096245;27;46106;-75
2022/06/09 03:24:25;;;;;;;;;2.67;2.67;;;;;31.47;25.87;100974.72;5096702;27;45420;-75
2022/06/09 03:26:51;;;;;;;;;3.00;2.00;;;;;31.39;25.97;100969.75;5096325;27;45393;-74
2022/06/09 03:29:19;;;;;;;;;3.33;2.00;;;;;31.51;25.75;100986.38;5096241;27;45399;-75
2022/06/09 03:31:45;;;;;;;;;2.00;2.00;;;;;31.44;26.19;100986.75;5096352;27;45279;-74
2022/06/09 03:34:10;;;;;;;;;4.33;2.00;;;;;31.28;26.21;100966.78;5096171;27;45265;-74
2022/06/09 03:36:35;;;;;;;;;3.00;2.00;;;;;31.43;26.19;100982.25;5096659;27;45251;-74
2022/06/09 03:39:01;;;;;;;;;4.67;3.00;;;;;31.48;26.52;100979.22;5096189;27;45344;-75
2022/06/09 03:41:26;;;;;;;;;4.33;2.00;;;;;31.56;25.69;100996.06;5096229;27;45524;-75
2022/06/09 03:43:52;;;;;;;;;4.33;3.00;;;;;31.22;26.51;100984.53;5094653;27;45393;-74
2022/06/09 03:46:17;;;;;;;;;4.00;2.67;;;;;31.45;25.87;100993.13;5096137;27;45340;-75
2022/06/09 03:48:42;;;;;;;;;3.00;2.00;;;;;31.46;26.33;100987.56;5096399;27;45223;-74
2022/06/09 03:51:10;;;;;;;;;2.00;2.00;;;;;31.63;26.05;101002.94;5096004;27;46298;-74
2022/06/09 03:53:35;;;;;;;;;2.00;2.00;;;;;31.51;25.27;101002.81;5096005;27;45433;-75
2022/06/09 03:56:01;;;;;;;;;3.00;2.00;;;;;31.57;26.15;101016.13;5096138;27;45341;-75
2022/06/09 03:58:26;;;;;;;;;6.33;3.00;;;;;31.52;25.58;101012.78;5095793;27;45523;-75
2022/06/09 04:00:51;;;;;;;;;2.00;1.33;;;;;31.66;25.97;101022.91;5095863;27;46480;-74
2022/06/09 04:03:17;;;;;;;;;3.33;3.00;;;;;31.69;25.12;101034.56;5095898;27;45475;-75
2022/06/09 04:05:42;;;;;;;;;4.00;2.67;;;;;31.55;26.07;101032.69;5096073;27;45478;-75
2022/06/09 04:08:11;;;;;;;;;3.33;3.00;;;;;31.60;26.20;101048.84;5096101;27;45599;-75
2022/06/09 04:10:36;;;;;;;;;4.00;3.00;;;;;31.66;26.10;101026.53;5099412;27;45369;-75
2022/06/09 04:13:02;;;;;;;;;4.00;1.00;;;;;31.79;25.63;101046.69;5099417;27;45528;-75
2022/06/09 04:15:28;;;;;;;;;6.33;3.00;;;;;31.72;25.45;101034.34;5099657;27;45420;-75
2022/06/09 04:17:54;;;;;;;;;1.00;1.00;;;;;31.58;25.68;101031.63;5099463;27;45578;-75
2022/06/09 04:20:22;;;;;;;;;3.00;3.00;;;;;31.53;26.15;101034.63;5099306;27;45377;-75
2022/06/09 04:22:48;;;;;;;;;2.00;2.00;;;;;31.56;26.21;101044.53;5099332;27;45397;-75
2022/06/09 04:25:13;;;;;;;;;5.00;2.67;;;;;31.68;25.23;101054.72;5099143;27;45685;-75
2022/06/09 04:27:39;;;;;;;;;5.00;2.00;;;;;31.66;25.52;101056.72;5099370;27;45334;-75
2022/06/09 04:30:05;;;;;;;;;3.00;3.00;;;;;31.58;25.55;101067.28;5098955;27;46038;-76
2022/06/09 04:32:31;;;;;;;;;3.00;2.00;;;;;31.68;26.12;101073.06;5099084;27;45428;-75
2022/06/09 04:34:56;;;;;;;;;3.67;2.00;;;;;31.46;25.79;101034.16;5111298;27;45274;-74
2022/06/09 04:37:59;;;;;;;;;5.00;3.00;;;;;31.66;25.80;101072.25;5113862;27;45309;-75
2022/06/09 04:40:09;;;;;;;;;4.00;3.00;;;;;31.91;25.77;101090.75;5097958;27;46092;-76
2022/06/09 04:42:34;;;;;;;;;3.00;3.00;;;;;31.95;25.56;101087.69;5098527;27;45471;-78
2022/06/09 04:45:00;;;;;;;;;4.00;2.67;;;;;31.95;25.39;101090.44;5098079;27;45491;-78
2022/06/09 04:47:25;;;;;;;;;4.33;3.00;;;;;31.94;25.54;101093.28;5097810;27;45497;-78
2022/06/09 04:49:50;;;;;;;;;4.67;3.00;;;;;31.91;25.51;101091.66;5098139;27;53428;-76
2022/06/09 04:52:16;;;;;;;;;4.33;3.00;;;;;31.92;25.17;101092.50;5098362;27;45515;-79
2022/06/09 04:54:41;;;;;;;;;5.00;4.00;;;;;32.02;25.80;101101.03;5098605;27;45464;-78
2022/06/09 04:57:06;;;;;;;;;4.00;2.33;;;;;31.97;25.26;101109.56;5098471;27;45585;-79
2022/06/09 04:59:32;;;;;;;;;6.33;2.33;;;;;31.85;25.41;101099.38;5111132;27;49057;-78
2022/06/09 05:01:57;;;;;;;;;8.67;3.00;;;;;31.84;25.34;101103.09;5111502;27;45477;-79
2022/06/09 05:04:22;;;;;;;;;2.33;2.33;;;;;32.00;25.40;101101.13;5119429;27;45579;-79
2022/06/09 05:06:48;;;;;;;;;4.00;4.00;;;;;32.14;25.51;101125.81;5118928;27;45488;-78
2022/06/09 05:09:13;;;;;;;;;2.00;2.00;;;;;32.31;25.17;101121.94;5118537;27;45342;-86
2022/06/09 05:11:38;;;;;;;;;7.67;3.00;;;;;31.99;24.80;101119.44;5125486;27;45466;-79
2022/06/09 05:14:04;;;;;;;;;3.67;2.00;;;;;32.05;25.73;101126.38;5098835;27;45519;-79
2022/06/09 05:16:29;;;;;;;;;4.00;2.67;;;;;31.95;25.40;101108.78;5099230;27;45378;-79
2022/06/09 05:18:54;;;;;;;;;3.00;3.00;;;;;32.15;25.25;101143.16;5098320;27;45448;-78
2022/06/09 05:21:20;;;;;;;;;4.00;4.00;;;;;32.12;25.13;101125.03;5098198;27;45230;-76
2022/06/09 05:23:45;;;;;;;;;3.67;3.67;;;;;32.09;24.97;101132.56;5104243;27;45453;-83
2022/06/09 05:26:10;;;;;;;;;3.67;2.67;;;;;32.13;25.22;101121.31;5104213;27;45489;-79
2022/06/09 05:28:36;;;;;;;;;3.33;3.00;;;;;32.26;25.21;101123.25;5098099;27;45795;-77
2022/06/09 05:31:02;;;;;;;;;6.00;3.00;;;;;32.42;24.77;101123.97;5097869;27;45417;-80
2022/06/09 05:33:28;;;;;;;;;9.00;3.00;;;;;32.60;24.79;101142.94;5094677;27;46092;-77
2022/06/09 05:35:54;;;;;;;;;5.67;3.33;;;;;32.34;25.00;101123.63;5096121;27;45451;-81
2022/06/09 05:46:33;;;;;;;;;4.00;2.00;;;;;32.33;25.00;101149.31;5098209;27;45569;-82
2022/06/09 05:48:59;;;;;;;;;2.33;2.33;;;;;32.35;25.12;101151.94;5097529;27;46217;-83
2022/06/09 05:51:25;;;;;;;;;3.00;3.00;;;;;32.18;24.73;101153.97;5097807;27;45437;-82
2022/06/09 05:53:50;;;;;;;;;4.33;2.33;;;;;32.21;24.70;101148.25;5112309;27;45525;-83
2022/06/09 05:56:16;;;;;;;;;3.00;2.00;;;;;32.45;24.82;101145.75;5097630;27;45400;-83
2022/06/09 05:58:42;;;;;;;;;5.67;2.00;;;;;32.69;24.79;101168.91;5097385;27;46309;-83
2022/06/09 06:01:10;;;;;;;;;7.67;3.33;;;;;32.61;24.52;101155.69;5096204;27;45453;-81
2022/06/09 06:03:37;;;;;;;;;2.00;2.00;;;;;32.71;24.63;101187.06;5097599;27;45322;-81
2022/06/09 06:08:47;;;;;;;;;5.67;4.00;;;;;32.73;24.37;101174.13;5097120;27;45909;-77
2022/06/09 06:11:14;;;;;;;;;6.00;2.67;;;;;32.73;24.93;101182.38;5097138;27;45423;-77
2022/06/09 06:13:41;;;;;;;;;5.00;3.67;;;;;32.83;24.87;101182.63;5098899;27;45539;-78
2022/06/09 06:16:07;;;;;;;;;5.00;3.67;;;;;32.91;24.59;101174.75;5097352;27;45619;-77
2022/06/09 06:18:33;;;;;;;;;3.33;3.33;;;;;33.11;24.45;101176.09;5097001;27;45531;-77
2022/06/09 06:20:59;;;;;;;;;5.67;4.00;;;;;33.21;24.04;101183.69;5095952;27;45559;-77
2022/06/09 06:23:25;;;;;;;;;3.00;3.00;;;;;33.09;24.34;101182.69;5096849;27;45538;-78
2022/06/09 06:25:52;;;;;;;;;5.00;3.00;;;;;33.04;24.02;101185.75;5097102;27;45322;-78
2022/06/09 06:28:18;;;;;;;;;2.67;2.67;;;;;33.34;23.72;101173.63;5094796;27;48072;-78
2022/06/09 06:30:43;;;;;;;;;4.33;2.67;;;;;33.46;23.88;101183.78;5096599;27;45382;-78
2022/06/09 06:33:09;;;;;;;;;9.33;5.67;;;;;33.47;24.20;101196.53;5096824;27;45476;-78
2022/06/09 06:35:34;;;;;;;;;6.00;3.33;;;;;33.41;23.94;101196.97;5096082;27;45311;-78
2022/06/09 06:38:00;;;;;;;;;3.00;3.00;;;;;33.41;23.30;101210.72;5097053;27;46181;-78
2022/06/09 06:40:26;;;;;;;;;4.00;3.00;;;;;33.55;24.02;101209.72;5097040;27;45351;-78
2022/06/09 06:42:51;;;;;;;;;7.00;4.00;;;;;33.48;24.04;101209.28;5103612;27;45382;-77
2022/06/09 06:45:17;;;;;;;;;4.67;3.33;;;;;33.58;24.05;101204.00;5097092;27;45357;-78
2022/06/09 06:47:43;;;;;;;;;3.67;2.00;;;;;33.52;23.81;101204.47;5096984;27;45469;-78
2022/06/09 06:50:10;;;;;;;;;3.00;3.00;;;;;33.60;23.90;101220.41;5096884;27;45331;-77
2022/06/09 06:52:36;;;;;;;;;4.33;4.00;;;;;33.57;23.53;101212.38;5110173;27;45351;-77
2022/06/09 06:55:03;;;;;;;;;6.00;4.33;;;;;33.38;23.70;101204.56;5117486;27;45341;-77
2022/06/09 06:57:28;;;;;;;;;5.00;3.67;;;;;33.72;23.31;101227.78;5117187;27;45361;-77
2022/06/09 06:59:53;;;;;;;;;4.67;3.67;;;;;33.80;23.59;101233.66;5117419;27;45319;-77
2022/06/09 07:02:19;;;;;;;;;8.00;4.00;;;;;33.56;23.91;101217.00;5117090;27;45376;-77
2022/06/09 07:04:45;;;;;;;;;5.00;4.00;;;;;33.58;23.44;101206.75;5117017;27;48772;-77
2022/06/09 07:07:10;;;;;;;;;4.33;3.33;;;;;33.47;24.02;101207.53;5117182;27;46440;-77
2022/06/09 07:09:36;;;;;;;;;5.67;5.00;;;;;33.49;24.07;101224.81;5116914;27;45410;-76
2022/06/09 07:12:01;;;;;;;;;6.67;4.00;;;;;33.14;23.76;101225.38;5090146;27;45994;-78
2022/06/09 07:14:27;;;;;;;;;4.00;4.00;;;;;33.08;23.71;101217.56;5074338;27;45678;-77
2022/06/09 07:16:52;;;;;;;;;8.33;3.67;;;;;32.93;23.49;101224.09;5092450;27;45521;-77
2022/06/09 07:19:19;;;;;;;;;4.67;4.33;;;;;32.92;24.05;101222.31;5096660;27;45627;-77
2022/06/09 07:21:45;;;;;;;;;4.00;4.00;;;;;33.14;23.87;101250.09;5091118;27;45478;-78
2022/06/09 07:24:10;;;;;;;;;4.00;4.00;;;;;33.22;23.76;101243.19;5092839;27;46265;-77
2022/06/09 07:26:36;;;;;;;;;5.50;3.50;;;;;33.06;23.20;101258.00;5093374;27;46642;-77
2022/06/09 07:29:02;;;;;;;;;5.33;4.67;;;;;33.08;23.62;101255.13;5107775;27;45385;-76
2022/06/09 07:31:27;;;;;;;;;4.00;4.00;;;;;32.91;23.06;101253.53;5093283;27;45473;-77
2022/06/09 07:33:53;;;;;;;;;5.33;4.00;;;;;32.72;23.61;101254.78;5091739;27;45636;-78
2022/06/09 07:36:22;;;;;;;;;5.00;4.00;;;;;32.72;23.32;101212.69;5092534;27;46426;-77
2022/06/09 07:38:48;;;;;;;;;6.00;4.67;;;;;32.82;23.39;101264.16;5091906;27;45527;-78
2022/06/09 07:41:13;;;;;;;;;7.00;6.00;;;;;32.76;23.60;101260.97;5092554;27;45541;-78
2022/06/09 07:43:39;;;;;;;;;3.33;2.33;;;;;32.65;22.95;101258.88;5095986;27;45487;-78
2022/06/09 07:46:04;;;;;;;;;5.67;5.00;;;;;32.62;22.80;101261.84;5092852;27;46453;-77
2022/06/09 07:48:30;;;;;;;;;4.00;4.00;;;;;32.90;23.01;101276.50;5094476;27;45544;-80
2022/06/09 07:50:56;;;;;;;;;4.33;4.00;;;;;32.95;23.40;101261.50;5111573;27;45461;-76
2022/06/09 07:53:22;;;;;;;;;5.00;4.00;;;;;33.44;22.95;101264.63;5089005;27;45569;-76
2022/06/09 07:55:48;;;;;;;;;4.00;4.00;;;;;33.42;22.73;101272.09;5090599;27;45484;-76
2022/06/09 07:58:14;;;;;;;;;3.00;3.00;;;;;33.39;22.52;101269.56;5090794;27;45349;-76
2022/06/09 08:00:40;;;;;;;;;4.33;3.67;;;;;33.54;22.40;101300.63;5091399;27;45596;-76
2022/06/09 08:03:06;;;;;;;;;4.67;3.67;;;;;32.94;22.69;101292.69;5090741;27;45987;-76
2022/06/09 08:05:32;;;;;;;;;3.00;3.00;;;;;32.96;22.57;101267.84;5093181;27;46472;-76
2022/06/09 08:07:57;;;;;;;;;5.00;5.00;;;;;33.24;22.07;101288.88;5095199;27;45506;-76
2022/06/09 08:10:25;;;;;;;;;6.00;6.00;;;;;33.53;22.56;101299.75;5088114;27;45574;-76
2022/06/09 08:12:54;;;;;;;;;5.33;4.67;;;;;33.75;21.52;101279.84;5074236;27;45959;-76
2022/06/09 08:15:24;;;;;;;;;7.00;5.67;;;;;33.72;21.75;101285.56;5096754;27;47504;-76
2022/06/09 08:17:49;;;;;;;;;2.67;2.67;;;;;33.74;21.55;101300.13;5092778;27;45455;-77
2022/06/09 08:20:15;;;;;;;;;5.00;4.67;;;;;33.50;21.35;101276.09;5095342;27;45366;-77
2022/06/09 08:22:43;;;;;;;;;6.67;6.33;;;;;33.53;21.57;101286.00;5086586;27;45600;-77
2022/06/09 08:25:10;;;;;;;;;6.33;4.33;;;;;33.51;21.83;101298.97;5090447;27;46214;-77
2022/06/09 08:27:35;;;;;;;;;8.00;4.00;;;;;33.59;22.15;101299.31;5092844;27;46112;-77
2022/06/09 08:30:01;;;;;;;;;4.00;4.00;;;;;33.72;21.71;101296.59;5091727;27;45899;-76
2022/06/09 08:32:26;;;;;;;;;4.33;3.00;;;;;33.92;21.56;101291.56;5090356;27;45427;-77
2022/06/09 08:34:51;;;;;;;;;5.00;3.67;;;;;33.64;21.54;101294.38;5089295;27;46269;-77
2022/06/09 08:37:17;;;;;;;;;4.00;4.00;;;;;33.65;22.16;101276.00;5092826;27;45476;-82
2022/06/09 08:39:42;;;;;;;;;4.67;4.67;;;;;33.77;21.70;101296.28;5090453;27;45381;-78
2022/06/09 08:42:26;;;;;;;;;7.33;4.67;;;;;34.07;21.82;101315.25;5090674;27;45402;-80
2022/06/09 08:45:04;;;;;;;;;6.33;5.00;;;;;34.05;21.51;101322.75;5091703;27;46404;-83
2022/06/09 08:47:59;;;;;;;;;5.00;5.00;;;;;33.97;21.41;101303.16;5090147;27;45527;-83
2022/06/09 08:50:34;;;;;;;;;4.00;4.00;;;;;34.08;21.18;101322.53;5086145;27;45318;-83
2022/06/09 08:53:12;;;;;;;;;5.67;5.33;;;;;34.08;21.24;101285.81;5090536;27;45430;-82
2022/06/09 08:55:52;;;;;;;;;4.00;3.00;;;;;34.37;21.18;101319.56;5106455;27;46383;-82
2022/06/09 08:58:39;;;;;;;;;4.67;4.67;;;;;33.85;21.51;101247.09;5092681;27;45455;-83
2022/06/09 09:01:11;;;;;;;;;3.67;3.67;;;;;34.06;21.58;101313.47;5090768;27;45425;-83
2022/06/09 09:04:17;;;;;;;;;3.00;2.67;;;;;33.84;21.22;101279.25;5110369;27;45488;-83
2022/06/09 09:06:53;;;;;;;;;3.67;3.67;;;;;34.10;20.93;101314.16;5079050;27;46567;-82
2022/06/09 09:09:27;;;;;;;;;5.00;3.00;;;;;34.15;21.23;101282.53;5096910;27;45505;-81
2022/06/09 09:12:05;;;;;;;;;5.00;4.00;;;;;34.30;21.30;101290.69;5109590;27;45456;-82
2022/06/09 09:14:46;;;;;;;;;4.00;3.67;;;;;34.51;20.88;101313.03;5125192;27;45675;-81
2022/06/09 09:17:37;;;;;;;;;5.33;3.67;;;;;34.51;20.51;101319.41;5092407;27;46353;-82
2022/06/09 09:20:14;;;;;;;;;4.00;4.00;;;;;34.09;20.72;101313.25;5099087;27;45535;-81
2022/06/09 09:22:53;;;;;;;;;4.67;4.00;;;;;34.31;20.59;101311.75;5093105;27;45483;-80
2022/06/09 09:25:30;;;;;;;;;4.67;3.33;;;;;34.38;20.36;101307.56;5096612;27;45536;-79
2022/06/09 09:28:12;;;;;;;;;4.00;3.00;;;;;34.07;20.51;101315.25;5093095;27;48177;-79
2022/06/09 09:30:42;;;;;;;;;5.67;4.00;;;;;34.22;20.52;101327.03;5110327;27;45464;-80
2022/06/09 09:33:14;;;;;;;;;3.00;3.00;;;;;34.13;20.82;101341.47;5098614;27;45734;-80
2022/06/09 09:35:41;;;;;;;;;5.00;3.00;;;;;34.30;20.56;101329.25;5092894;27;45473;-80
2022/06/09 09:38:11;;;;;;;;;8.00;3.33;;;;;34.45;20.53;101314.38;5093816;27;46542;-80
2022/06/09 09:40:42;;;;;;;;;4.00;3.00;;;;;34.45;20.04;101322.63;5094013;27;45463;-79
2022/06/09 09:43:13;;;;;;;;;5.33;4.00;;;;;34.78;20.14;101315.63;5094222;27;45793;-79
2022/06/09 09:45:52;;;;;;;;;3.00;3.00;;;;;34.89;20.18;101325.00;5094120;27;45551;-79
2022/06/09 09:48:18;;;;;;;;;5.00;4.00;;;;;34.67;19.61;101329.31;5109140;27;47582;-78
2022/06/09 09:50:54;;;;;;;;;6.33;4.33;;;;;34.53;19.74;101322.94;5093028;27;45533;-79
2022/06/09 09:53:22;;;;;;;;;7.33;3.00;;;;;34.78;20.08;101336.78;5096831;27;45555;-79
2022/06/09 09:55:52;;;;;;;;;4.67;2.67;;;;;34.73;19.68;101336.22;5109448;27;45623;-79
2022/06/09 09:58:24;;;;;;;;;3.00;2.00;;;;;34.88;19.65;101321.34;5093455;27;46594;-79
2022/06/09 10:00:57;;;;;;;;;4.00;3.00;;;;;34.92;19.31;101330.28;5092648;27;45590;-79
2022/06/09 10:09:24;;;;;;;;;3.33;3.00;;;;;35.55;19.15;101337.38;5071818;27;45633;-79
2022/06/09 10:11:55;;;;;;;;;6.33;4.00;;;;;35.47;19.02;101316.91;5052202;28;45575;-78
2022/06/09 10:14:39;;;;;;;;;3.00;3.00;;;;;35.63;19.55;101328.53;5069890;27;45619;-78
2022/06/09 10:17:18;;;;;;;;;5.00;5.00;;;;;35.78;18.56;101323.69;5071163;27;45435;-79
2022/06/09 10:20:03;;;;;;;;;3.00;3.00;;;;;35.57;19.24;101333.63;5073069;27;45771;-80
2022/06/09 10:22:33;;;;;;;;;7.33;3.00;;;;;35.92;19.36;101341.91;5065761;28;45691;-80
2022/06/09 10:25:20;;;;;;;;;5.00;5.00;;;;;35.62;19.34;101336.94;5073772;27;45478;-80
2022/06/09 10:27:59;;;;;;;;;2.00;2.00;;;;;35.29;19.36;101314.56;5072053;27;45755;-80
2022/06/09 10:30:45;;;;;;;;;4.00;3.00;;;;;35.31;19.40;101331.03;5056245;28;48172;-80
2022/06/09 10:33:33;;;;;;;;;5.00;2.33;;;;;35.57;19.19;101339.16;5055271;28;45467;-79
2022/06/09 10:36:22;;;;;;;;;5.67;2.00;;;;;35.71;19.05;101308.59;5075559;27;45549;-79
2022/06/09 10:39:05;;;;;;;;;3.00;3.00;;;;;35.94;18.61;101314.22;5070186;28;45563;-79
2022/06/09 10:41:55;;;;;;;;;3.00;2.00;;;;;36.01;19.33;101349.50;5070512;27;45479;-79
2022/06/09 10:44:44;;;;;;;;;3.00;3.00;;;;;36.36;19.37;101354.09;5053223;28;45823;-79
2022/06/09 10:56:21;;;;;;;;;3.00;3.00;;;;;36.08;18.39;101348.97;5093549;27;45452;-78
2022/06/09 10:58:56;;;;;;;;;2.00;1.67;;;;;36.30;18.96;101364.72;5098883;27;45412;-79
2022/06/09 11:01:27;;;;;;;;;3.67;2.33;;;;;36.08;18.91;101366.47;5094760;27;45709;-80
2022/06/09 11:03:53;;;;;;;;;3.00;1.00;;;;;35.70;19.05;101318.75;5081904;27;47773;-81
2022/06/09 11:06:43;;;;;;;;;5.00;2.00;;;;;35.87;18.87;101367.16;5090007;27;46233;-83
2022/06/09 11:09:14;;;;;;;;;2.67;2.67;;;;;36.07;18.67;101364.69;5097979;27;45465;-83
2022/06/09 11:12:09;;;;;;;;;2.33;2.33;;;;;36.29;18.86;101368.47;5088783;27;45525;-82
2022/06/09 11:14:53;;;;;;;;;3.33;2.33;;;;;36.51;18.75;101367.66;5022073;28;46285;-82
2022/06/09 11:17:35;;;;;;;;;5.00;2.67;;;;;36.18;18.24;101345.38;5025836;28;45685;-82
2022/06/09 11:20:11;;;;;;;;;4.00;2.33;;;;;36.33;19.12;101372.78;5027059;28;45482;-81
2022/06/09 11:22:37;;;;;;;;;3.00;1.33;;;;;36.56;18.43;101365.41;5008042;28;45556;-81
2022/06/09 11:25:28;;;;;;;;;0.33;0.00;;;;;36.42;18.27;101338.91;5025464;28;46469;-80
2022/06/09 11:28:40;;;;;;;;;3.00;2.00;;;;;36.49;18.70;101365.03;5020880;28;45737;-80
2022/06/09 11:31:53;;;;;;;;;3.00;2.00;;;;;36.62;18.47;101369.56;4966946;28;45901;-83
2022/06/09 11:34:39;;;;;;;;;5.67;5.00;;;;;36.55;17.77;101374.69;4959408;28;45555;-85
2022/06/09 11:37:22;;;;;;;;;5.00;2.00;;;;;36.35;18.28;101356.97;4946344;28;47127;-85
2022/06/09 11:40:02;;;;;;;;;2.00;2.00;;;;;36.79;18.49;101391.19;4956545;28;45422;-88
2022/06/09 11:43:10;;;;;;;;;2.00;2.00;;;;;36.66;17.82;101332.34;4989607;28;45278;-89
2022/06/09 11:45:44;;;;;;;;;2.00;2.00;;;;;37.06;17.87;101384.34;4926449;28;45584;-88
2022/06/09 11:48:23;;;;;;;;;2.33;1.00;;;;;36.95;18.03;101348.41;4955499;28;46252;-88
2022/06/09 11:50:50;;;;;;;;;2.00;2.00;;;;;36.50;17.63;101300.47;4994260;28;45741;-88
2022/06/09 11:53:20;;;;;;;;;2.33;2.00;;;;;36.79;17.63;101343.31;5043990;28;45384;-89
2022/06/09 11:55:58;;;;;;;;;1.33;1.00;;;;;36.95;18.05;101337.34;5016516;28;45527;-88
2022/06/09 11:58:41;;;;;;;;;2.33;2.00;;;;;36.59;17.34;101303.47;4995604;28;48161;-87
2022/06/09 12:01:15;;;;;;;;;2.00;2.00;;;;;37.15;17.06;101383.59;5010454;28;45799;-88
2022/06/09 12:04:10;;;;;;;;;4.00;2.00;;;;;36.74;16.97;101291.13;5034695;28;45802;-89
2022/06/09 12:06:48;;;;;;;;;2.00;2.00;;;;;37.10;17.40;101344.34;5014818;28;45711;-86